Station Historical Data
Daily Summary for January 19, 2012 Units:  Both    English   Metric
« Previous Day
Next Day »
Daily Weekly Monthly Yearly Custom
  High: Low: Average:
Temperature: 55.3 °F /  12.9 °C 28.2 °F /  -2.1 °C 41.4 °F /  5.2 °C
Dew Point: 41.0 °F /  5 °C 24.9 °F /  -3.9 °C 31.8 °F /  -0.1 °C
Humidity: 91% 48% 71%
Wind Speed: 13.0mph /  20.9km/h - 3.8mph /  6.1km/h
Wind Gust: 13.0mph /  20.9km/h - -
Wind- - SSE
Pressure: 30.15 in /  1020.9 hPa 29.98 in /  1015.1 hPa -
Precipitation: 0.00 in /  0 mm    
Historical Graphs
 
 
Tabular Data for January 19, 2012
Time Temperature Dew Point Pressure Wind Wind Speed Wind Gust Humidity Rainfall Rate (Hourly) Conditions
00:00 30.7 °F /  -0.7 °C 25.6 °F /  -3.6 °C 30.15in /  1020.9hPa ESE 3.0mph /  4.8km/h 4.0mph /  6.4km/h 81% 0.00in /  0mm
00:02 30.8 °F /  -0.7 °C 25.7 °F /  -3.5 °C 30.15in /  1020.9hPa ESE 2.0mph /  3.2km/h 4.0mph /  6.4km/h 81% 0.00in /  0mm
00:07 30.8 °F /  -0.7 °C 25.7 °F /  -3.5 °C 30.15in /  1020.9hPa ESE 2.0mph /  3.2km/h 4.0mph /  6.4km/h 81% 0.00in /  0mm
00:12 30.8 °F /  -0.7 °C 25.7 °F /  -3.5 °C 30.15in /  1020.9hPa East 2.0mph /  3.2km/h 2.0mph /  3.2km/h 81% 0.00in /  0mm
00:17 30.7 °F /  -0.7 °C 25.9 °F /  -3.4 °C 30.15in /  1020.9hPa ESE 1.0mph /  1.6km/h 3.0mph /  4.8km/h 82% 0.00in /  0mm
00:22 30.5 °F /  -0.8 °C 25.7 °F /  -3.5 °C 30.15in /  1020.9hPa East 1.0mph /  1.6km/h 2.0mph /  3.2km/h 82% 0.00in /  0mm
00:27 30.5 °F /  -0.8 °C 25.7 °F /  -3.5 °C 30.15in /  1020.9hPa Calm   1.0mph /  1.6km/h 82% 0.00in /  0mm
00:32 30.5 °F /  -0.8 °C 26.0 °F /  -3.3 °C 30.15in /  1020.9hPa East 2.0mph /  3.2km/h 2.0mph /  3.2km/h 83% 0.00in /  0mm
00:37 30.5 °F /  -0.8 °C 25.7 °F /  -3.5 °C 30.15in /  1020.9hPa East 1.0mph /  1.6km/h 2.0mph /  3.2km/h 82% 0.00in /  0mm
00:42 30.6 °F /  -0.8 °C 25.8 °F /  -3.4 °C 30.15in /  1020.9hPa ENE 1.0mph /  1.6km/h 2.0mph /  3.2km/h 82% 0.00in /  0mm
00:47 30.5 °F /  -0.8 °C 26.0 °F /  -3.3 °C 30.14in /  1020.5hPa Calm   1.0mph /  1.6km/h 83% 0.00in /  0mm
00:52 30.5 °F /  -0.8 °C 26.0 °F /  -3.3 °C 30.14in /  1020.5hPa Calm   1.0mph /  1.6km/h 83% 0.00in /  0mm
00:57 30.4 °F /  -0.9 °C 25.9 °F /  -3.4 °C 30.14in /  1020.5hPa East 1.0mph /  1.6km/h 1.0mph /  1.6km/h 83% 0.00in /  0mm
01:02 30.3 °F /  -0.9 °C 25.8 °F /  -3.4 °C 30.14in /  1020.5hPa East 2.0mph /  3.2km/h 2.0mph /  3.2km/h 83% 0.00in /  0mm
01:07 30.2 °F /  -1 °C 26.0 °F /  -3.3 °C 30.14in /  1020.5hPa East 1.0mph /  1.6km/h 1.0mph /  1.6km/h 84% 0.00in /  0mm
01:12 30.2 °F /  -1 °C 26.0 °F /  -3.3 °C 30.14in /  1020.5hPa ENE 1.0mph /  1.6km/h 2.0mph /  3.2km/h 84% 0.00in /  0mm
01:17 30.2 °F /  -1 °C 26.0 °F /  -3.3 °C 30.14in /  1020.5hPa East 1.0mph /  1.6km/h 1.0mph /  1.6km/h 84% 0.00in /  0mm
01:23 30.1 °F /  -1.1 °C 25.9 °F /  -3.4 °C 30.14in /  1020.5hPa East 2.0mph /  3.2km/h 2.0mph /  3.2km/h 84% 0.00in /  0mm
01:28 30.1 °F /  -1.1 °C 26.1 °F /  -3.3 °C 30.14in /  1020.5hPa ESE 1.0mph /  1.6km/h 2.0mph /  3.2km/h 85% 0.00in /  0mm
01:33 30.0 °F /  -1.1 °C 26.0 °F /  -3.3 °C 30.14in /  1020.5hPa East 1.0mph /  1.6km/h 2.0mph /  3.2km/h 85% 0.00in /  0mm
01:38 30.0 °F /  -1.1 °C 26.0 °F /  -3.3 °C 30.14in /  1020.5hPa ESE 2.0mph /  3.2km/h 2.0mph /  3.2km/h 85% 0.00in /  0mm
01:43 30.0 °F /  -1.1 °C 26.3 °F /  -3.2 °C 30.13in /  1020.2hPa East 1.0mph /  1.6km/h 2.0mph /  3.2km/h 86% 0.00in /  0mm
01:48 29.9 °F /  -1.2 °C 26.5 °F /  -3.1 °C 30.13in /  1020.2hPa East 2.0mph /  3.2km/h 2.0mph /  3.2km/h 87% 0.00in /  0mm
01:53 29.8 °F /  -1.2 °C 26.4 °F /  -3.1 °C 30.13in /  1020.2hPa ENE 2.0mph /  3.2km/h 3.0mph /  4.8km/h 87% 0.00in /  0mm
01:58 29.8 °F /  -1.2 °C 26.4 °F /  -3.1 °C 30.13in /  1020.2hPa East 1.0mph /  1.6km/h 2.0mph /  3.2km/h 87% 0.00in /  0mm
02:03 29.8 °F /  -1.2 °C 26.4 °F /  -3.1 °C 30.12in /  1019.9hPa ESE 2.0mph /  3.2km/h 2.0mph /  3.2km/h 87% 0.00in /  0mm
02:08 29.7 °F /  -1.3 °C 26.6 °F /  -3 °C 30.13in /  1020.2hPa ESE 1.0mph /  1.6km/h 2.0mph /  3.2km/h 88% 0.00in /  0mm
02:13 29.8 °F /  -1.2 °C 26.4 °F /  -3.1 °C 30.13in /  1020.2hPa ESE 1.0mph /  1.6km/h 2.0mph /  3.2km/h 87% 0.00in /  0mm
02:18 29.8 °F /  -1.2 °C 26.4 °F /  -3.1 °C 30.13in /  1020.2hPa East 1.0mph /  1.6km/h 2.0mph /  3.2km/h 87% 0.00in /  0mm
02:23 29.9 °F /  -1.2 °C 26.5 °F /  -3.1 °C 30.13in /  1020.2hPa East 2.0mph /  3.2km/h 2.0mph /  3.2km/h 87% 0.00in /  0mm
02:28 29.8 °F /  -1.2 °C 26.4 °F /  -3.1 °C 30.13in /  1020.2hPa East 1.0mph /  1.6km/h 2.0mph /  3.2km/h 87% 0.00in /  0mm
02:33 29.8 °F /  -1.2 °C 26.4 °F /  -3.1 °C 30.13in /  1020.2hPa ESE 1.0mph /  1.6km/h 2.0mph /  3.2km/h 87% 0.00in /  0mm
02:38 29.7 °F /  -1.3 °C 26.3 °F /  -3.2 °C 30.13in /  1020.2hPa ESE 1.0mph /  1.6km/h 2.0mph /  3.2km/h 87% 0.00in /  0mm
02:43 29.6 °F /  -1.3 °C 26.5 °F /  -3.1 °C 30.13in /  1020.2hPa ESE 3.0mph /  4.8km/h 3.0mph /  4.8km/h 88% 0.00in /  0mm
02:48 29.6 °F /  -1.3 °C 26.2 °F /  -3.2 °C 30.13in /  1020.2hPa East 2.0mph /  3.2km/h 3.0mph /  4.8km/h 87% 0.00in /  0mm
02:53 29.6 °F /  -1.3 °C 26.2 °F /  -3.2 °C 30.13in /  1020.2hPa ESE 2.0mph /  3.2km/h 3.0mph /  4.8km/h 87% 0.00in /  0mm
02:58 29.6 °F /  -1.3 °C 25.9 °F /  -3.4 °C 30.13in /  1020.2hPa East 2.0mph /  3.2km/h 2.0mph /  3.2km/h 86% 0.00in /  0mm
03:03 29.6 °F /  -1.3 °C 25.9 °F /  -3.4 °C 30.13in /  1020.2hPa ESE 2.0mph /  3.2km/h 3.0mph /  4.8km/h 86% 0.00in /  0mm
03:08 29.4 °F /  -1.4 °C 25.7 °F /  -3.5 °C 30.12in /  1019.9hPa SE 3.0mph /  4.8km/h 3.0mph /  4.8km/h 86% 0.00in /  0mm
03:14 29.4 °F /  -1.4 °C 25.7 °F /  -3.5 °C 30.13in /  1020.2hPa ESE 2.0mph /  3.2km/h 3.0mph /  4.8km/h 86% 0.00in /  0mm
03:19 29.4 °F /  -1.4 °C 25.7 °F /  -3.5 °C 30.13in /  1020.2hPa East 2.0mph /  3.2km/h 4.0mph /  6.4km/h 86% 0.00in /  0mm
03:24 29.3 °F /  -1.5 °C 25.6 °F /  -3.6 °C 30.12in /  1019.9hPa ESE 2.0mph /  3.2km/h 3.0mph /  4.8km/h 86% 0.00in /  0mm
03:29 29.2 °F /  -1.6 °C 25.8 °F /  -3.4 °C 30.12in /  1019.9hPa ESE 3.0mph /  4.8km/h 3.0mph /  4.8km/h 87% 0.00in /  0mm
03:34 29.2 °F /  -1.6 °C 25.5 °F /  -3.6 °C 30.12in /  1019.9hPa ESE 3.0mph /  4.8km/h 5.0mph /  8km/h 86% 0.00in /  0mm
03:39 29.2 °F /  -1.6 °C 25.8 °F /  -3.4 °C 30.12in /  1019.9hPa ESE 3.0mph /  4.8km/h 4.0mph /  6.4km/h 87% 0.00in /  0mm
03:44 29.1 °F /  -1.6 °C 25.4 °F /  -3.7 °C 30.12in /  1019.9hPa ESE 3.0mph /  4.8km/h 4.0mph /  6.4km/h 86% 0.00in /  0mm
03:49 29.0 °F /  -1.7 °C 25.4 °F /  -3.7 °C 30.12in /  1019.9hPa ESE 3.0mph /  4.8km/h 4.0mph /  6.4km/h 86% 0.00in /  0mm
03:54 29.0 °F /  -1.7 °C 25.6 °F /  -3.6 °C 30.12in /  1019.9hPa ESE 3.0mph /  4.8km/h 3.0mph /  4.8km/h 87% 0.00in /  0mm
03:59 29.0 °F /  -1.7 °C 25.6 °F /  -3.6 °C 30.12in /  1019.9hPa East 2.0mph /  3.2km/h 3.0mph /  4.8km/h 87% 0.00in /  0mm
04:04 29.0 °F /  -1.7 °C 25.6 °F /  -3.6 °C 30.12in /  1019.9hPa ESE 3.0mph /  4.8km/h 3.0mph /  4.8km/h 87% 0.00in /  0mm
04:09 28.8 °F /  -1.8 °C 25.1 °F /  -3.8 °C 30.12in /  1019.9hPa ESE 3.0mph /  4.8km/h 4.0mph /  6.4km/h 86% 0.00in /  0mm
04:14 28.7 °F /  -1.8 °C 25.3 °F /  -3.7 °C 30.12in /  1019.9hPa ESE 3.0mph /  4.8km/h 3.0mph /  4.8km/h 87% 0.00in /  0mm
04:19 28.6 °F /  -1.9 °C 25.2 °F /  -3.8 °C 30.13in /  1020.2hPa ESE 3.0mph /  4.8km/h 3.0mph /  4.8km/h 87% 0.00in /  0mm
04:25 28.6 °F /  -1.9 °C 25.2 °F /  -3.8 °C 30.12in /  1019.9hPa ESE 3.0mph /  4.8km/h 4.0mph /  6.4km/h 87% 0.00in /  0mm
04:30 28.5 °F /  -1.9 °C 25.1 °F /  -3.8 °C 30.13in /  1020.2hPa ESE 2.0mph /  3.2km/h 4.0mph /  6.4km/h 87% 0.00in /  0mm
04:35 28.3 °F /  -2.1 °C 24.9 °F /  -3.9 °C 30.13in /  1020.2hPa ESE 3.0mph /  4.8km/h 5.0mph /  8km/h 87% 0.00in /  0mm
04:40 28.2 °F /  -2.1 °C 25.1 °F /  -3.8 °C 30.13in /  1020.2hPa ESE 3.0mph /  4.8km/h 4.0mph /  6.4km/h 88% 0.00in /  0mm
04:45 28.2 °F /  -2.1 °C 25.1 °F /  -3.8 °C 30.13in /  1020.2hPa ESE 3.0mph /  4.8km/h 4.0mph /  6.4km/h 88% 0.00in /  0mm
04:50 28.2 °F /  -2.1 °C 25.1 °F /  -3.8 °C 30.12in /  1019.9hPa ESE 4.0mph /  6.4km/h 4.0mph /  6.4km/h 88% 0.00in /  0mm
04:55 28.3 °F /  -2.1 °C 25.2 °F /  -3.8 °C 30.12in /  1019.9hPa SE 3.0mph /  4.8km/h 4.0mph /  6.4km/h 88% 0.00in /  0mm
05:00 28.4 °F /  -2 °C 25.3 °F /  -3.7 °C 30.13in /  1020.2hPa SE 4.0mph /  6.4km/h 5.0mph /  8km/h 88% 0.00in /  0mm
05:05 28.6 °F /  -1.9 °C 25.5 °F /  -3.6 °C 30.13in /  1020.2hPa ESE 3.0mph /  4.8km/h 6.0mph /  9.7km/h 88% 0.00in /  0mm
05:10 28.7 °F /  -1.8 °C 25.6 °F /  -3.6 °C 30.12in /  1019.9hPa ESE 4.0mph /  6.4km/h 5.0mph /  8km/h 88% 0.00in /  0mm
05:15 28.9 °F /  -1.7 °C 25.8 °F /  -3.4 °C 30.12in /  1019.9hPa SE 3.0mph /  4.8km/h 5.0mph /  8km/h 88% 0.00in /  0mm
05:20 29.0 °F /  -1.7 °C 25.9 °F /  -3.4 °C 30.12in /  1019.9hPa SE 4.0mph /  6.4km/h 5.0mph /  8km/h 88% 0.00in /  0mm
05:25 29.0 °F /  -1.7 °C 25.9 °F /  -3.4 °C 30.13in /  1020.2hPa ESE 3.0mph /  4.8km/h 5.0mph /  8km/h 88% 0.00in /  0mm
05:30 29.2 °F /  -1.6 °C 26.1 °F /  -3.3 °C 30.13in /  1020.2hPa ESE 4.0mph /  6.4km/h 6.0mph /  9.7km/h 88% 0.00in /  0mm
05:35 29.2 °F /  -1.6 °C 26.1 °F /  -3.3 °C 30.13in /  1020.2hPa SE 2.0mph /  3.2km/h 4.0mph /  6.4km/h 88% 0.00in /  0mm
05:40 29.1 °F /  -1.6 °C 26.0 °F /  -3.3 °C 30.13in /  1020.2hPa ESE 4.0mph /  6.4km/h 4.0mph /  6.4km/h 88% 0.00in /  0mm
05:45 29.0 °F /  -1.7 °C 25.9 °F /  -3.4 °C 30.13in /  1020.2hPa ESE 3.0mph /  4.8km/h 4.0mph /  6.4km/h 88% 0.00in /  0mm
05:50 28.8 °F /  -1.8 °C 26.0 °F /  -3.3 °C 30.14in /  1020.5hPa SE 2.0mph /  3.2km/h 3.0mph /  4.8km/h 89% 0.00in /  0mm
05:55 28.8 °F /  -1.8 °C 26.0 °F /  -3.3 °C 30.14in /  1020.5hPa SE 4.0mph /  6.4km/h 5.0mph /  8km/h 89% 0.00in /  0mm
06:00 28.9 °F /  -1.7 °C 26.1 °F /  -3.3 °C 30.13in /  1020.2hPa SE 4.0mph /  6.4km/h 5.0mph /  8km/h 89% 0.00in /  0mm
06:05 29.1 °F /  -1.6 °C 26.3 °F /  -3.2 °C 30.14in /  1020.5hPa SE 2.0mph /  3.2km/h 4.0mph /  6.4km/h 89% 0.00in /  0mm
06:10 29.2 °F /  -1.6 °C 26.4 °F /  -3.1 °C 30.13in /  1020.2hPa ESE 4.0mph /  6.4km/h 4.0mph /  6.4km/h 89% 0.00in /  0mm
06:16 28.9 °F /  -1.7 °C 26.1 °F /  -3.3 °C 30.12in /  1019.9hPa ESE 4.0mph /  6.4km/h 6.0mph /  9.7km/h 89% 0.00in /  0mm
06:21 29.1 °F /  -1.6 °C 26.5 °F /  -3.1 °C 30.12in /  1019.9hPa ESE 6.0mph /  9.7km/h 7.0mph /  11.3km/h 90% 0.00in /  0mm
06:26 29.3 °F /  -1.5 °C 26.7 °F /  -2.9 °C 30.12in /  1019.9hPa SE 4.0mph /  6.4km/h 7.0mph /  11.3km/h 90% 0.00in /  0mm
06:31 29.4 °F /  -1.4 °C 26.8 °F /  -2.9 °C 30.11in /  1019.5hPa ESE 5.0mph /  8km/h 8.0mph /  12.9km/h 90% 0.00in /  0mm
06:36 29.6 °F /  -1.3 °C 27.0 °F /  -2.8 °C 30.10in /  1019.2hPa SE 7.0mph /  11.3km/h 8.0mph /  12.9km/h 90% 0.00in /  0mm
06:41 29.8 °F /  -1.2 °C 27.2 °F /  -2.7 °C 30.10in /  1019.2hPa SE 6.0mph /  9.7km/h 9.0mph /  14.5km/h 90% 0.00in /  0mm
06:46 29.8 °F /  -1.2 °C 27.2 °F /  -2.7 °C 30.09in /  1018.8hPa SE 5.0mph /  8km/h 10.0mph /  16.1km/h 90% 0.00in /  0mm
06:51 29.9 °F /  -1.2 °C 27.1 °F /  -2.7 °C 30.08in /  1018.5hPa ESE 5.0mph /  8km/h 11.0mph /  17.7km/h 89% 0.00in /  0mm
06:56 29.8 °F /  -1.2 °C 27.0 °F /  -2.8 °C 30.08in /  1018.5hPa ESE 5.0mph /  8km/h 8.0mph /  12.9km/h 89% 0.00in /  0mm
07:01 29.8 °F /  -1.2 °C 27.0 °F /  -2.8 °C 30.09in /  1018.8hPa ESE 4.0mph /  6.4km/h 8.0mph /  12.9km/h 89% 0.00in /  0mm
07:06 29.8 °F /  -1.2 °C 27.0 °F /  -2.8 °C 30.11in /  1019.5hPa ESE 4.0mph /  6.4km/h 5.0mph /  8km/h 89% 0.00in /  0mm
07:11 29.8 °F /  -1.2 °C 27.0 °F /  -2.8 °C 30.11in /  1019.5hPa ESE 3.0mph /  4.8km/h 4.0mph /  6.4km/h 89% 0.00in /  0mm
07:16 29.7 °F /  -1.3 °C 26.9 °F /  -2.8 °C 30.11in /  1019.5hPa SE 2.0mph /  3.2km/h 5.0mph /  8km/h 89% 0.00in /  0mm
07:21 29.7 °F /  -1.3 °C 26.9 °F /  -2.8 °C 30.11in /  1019.5hPa SE 3.0mph /  4.8km/h 5.0mph /  8km/h 89% 0.00in /  0mm
07:26 29.8 °F /  -1.2 °C 26.7 °F /  -2.9 °C 30.11in /  1019.5hPa ESE 2.0mph /  3.2km/h 4.0mph /  6.4km/h 88% 0.00in /  0mm
07:31 29.5 °F /  -1.4 °C 26.7 °F /  -2.9 °C 30.11in /  1019.5hPa ESE 2.0mph /  3.2km/h 2.0mph /  3.2km/h 89% 0.00in /  0mm
07:36 29.4 °F /  -1.4 °C 26.6 °F /  -3 °C 30.11in /  1019.5hPa SE 3.0mph /  4.8km/h 3.0mph /  4.8km/h 89% 0.00in /  0mm
07:41 29.4 °F /  -1.4 °C 26.6 °F /  -3 °C 30.11in /  1019.5hPa ESE 5.0mph /  8km/h 5.0mph /  8km/h 89% 0.00in /  0mm
07:46 29.5 °F /  -1.4 °C 26.9 °F /  -2.8 °C 30.11in /  1019.5hPa SE 4.0mph /  6.4km/h 6.0mph /  9.7km/h 90% 0.00in /  0mm
07:51 29.6 °F /  -1.3 °C 27.0 °F /  -2.8 °C 30.11in /  1019.5hPa SE 4.0mph /  6.4km/h 6.0mph /  9.7km/h 90% 0.00in /  0mm
07:56 29.8 °F /  -1.2 °C 27.2 °F /  -2.7 °C 30.10in /  1019.2hPa ESE 7.0mph /  11.3km/h 7.0mph /  11.3km/h 90% 0.00in /  0mm
08:01 29.8 °F /  -1.2 °C 27.2 °F /  -2.7 °C 30.09in /  1018.8hPa SE 6.0mph /  9.7km/h 9.0mph /  14.5km/h 90% 0.00in /  0mm
08:06 29.8 °F /  -1.2 °C 27.2 °F /  -2.7 °C 30.09in /  1018.8hPa SE 6.0mph /  9.7km/h 7.0mph /  11.3km/h 90% 0.00in /  0mm
08:11 29.8 °F /  -1.2 °C 27.2 °F /  -2.7 °C 30.11in /  1019.5hPa SSE 3.0mph /  4.8km/h 7.0mph /  11.3km/h 90% 0.00in /  0mm
08:16 29.9 °F /  -1.2 °C 27.6 °F /  -2.4 °C 30.12in /  1019.9hPa SSE 4.0mph /  6.4km/h 6.0mph /  9.7km/h 91% 0.00in /  0mm
08:21 30.0 °F /  -1.1 °C 27.7 °F /  -2.4 °C 30.12in /  1019.9hPa SSE 3.0mph /  4.8km/h 5.0mph /  8km/h 91% 0.00in /  0mm
08:26 30.1 °F /  -1.1 °C 27.8 °F /  -2.3 °C 30.13in /  1020.2hPa SE 4.0mph /  6.4km/h 5.0mph /  8km/h 91% 0.00in /  0mm
08:31 30.2 °F /  -1 °C 27.9 °F /  -2.3 °C 30.13in /  1020.2hPa SE 3.0mph /  4.8km/h 4.0mph /  6.4km/h 91% 0.00in /  0mm
08:36 30.2 °F /  -1 °C 27.9 °F /  -2.3 °C 30.14in /  1020.5hPa SSE 3.0mph /  4.8km/h 4.0mph /  6.4km/h 91% 0.00in /  0mm
08:41 30.2 °F /  -1 °C 27.9 °F /  -2.3 °C 30.14in /  1020.5hPa SSE 3.0mph /  4.8km/h 4.0mph /  6.4km/h 91% 0.00in /  0mm
08:46 30.6 °F /  -0.8 °C 28.3 °F /  -2.1 °C 30.14in /  1020.5hPa SE 3.0mph /  4.8km/h 4.0mph /  6.4km/h 91% 0.00in /  0mm
08:51 30.8 °F /  -0.7 °C 28.2 °F /  -2.1 °C 30.14in /  1020.5hPa SSE 3.0mph /  4.8km/h 4.0mph /  6.4km/h 90% 0.00in /  0mm
08:56 31.3 °F /  -0.4 °C 28.7 °F /  -1.8 °C 30.14in /  1020.5hPa SE 2.0mph /  3.2km/h 5.0mph /  8km/h 90% 0.00in /  0mm
09:01 31.6 °F /  -0.2 °C 28.7 °F /  -1.8 °C 30.13in /  1020.2hPa SSE 4.0mph /  6.4km/h 5.0mph /  8km/h 89% 0.00in /  0mm
09:06 32.1 °F /  0.1 °C 29.0 °F /  -1.7 °C 30.13in /  1020.2hPa SE 5.0mph /  8km/h 6.0mph /  9.7km/h 88% 0.00in /  0mm
09:11 32.4 °F /  0.2 °C 29.0 °F /  -1.7 °C 30.14in /  1020.5hPa SE 5.0mph /  8km/h 7.0mph /  11.3km/h 87% 0.00in /  0mm
09:16 32.9 °F /  0.5 °C 29.5 °F /  -1.4 °C 30.13in /  1020.2hPa SE 4.0mph /  6.4km/h 5.0mph /  8km/h 87% 0.00in /  0mm
09:22 33.6 °F /  0.9 °C 29.9 °F /  -1.2 °C 30.13in /  1020.2hPa SE 6.0mph /  9.7km/h 8.0mph /  12.9km/h 86% 0.00in /  0mm
09:27 33.9 °F /  1.1 °C 29.6 °F /  -1.3 °C 30.13in /  1020.2hPa SSE 8.0mph /  12.9km/h 8.0mph /  12.9km/h 84% 0.00in /  0mm
09:32 33.9 °F /  1.1 °C 29.3 °F /  -1.5 °C 30.13in /  1020.2hPa SE 5.0mph /  8km/h 8.0mph /  12.9km/h 83% 0.00in /  0mm
09:37 34.1 °F /  1.2 °C 29.5 °F /  -1.4 °C 30.13in /  1020.2hPa SSE 5.0mph /  8km/h 8.0mph /  12.9km/h 83% 0.00in /  0mm
09:42 34.7 °F /  1.5 °C 29.8 °F /  -1.2 °C 30.13in /  1020.2hPa SSE 4.0mph /  6.4km/h 7.0mph /  11.3km/h 82% 0.00in /  0mm
09:47 35.2 °F /  1.8 °C 30.0 °F /  -1.1 °C 30.13in /  1020.2hPa South 5.0mph /  8km/h 9.0mph /  14.5km/h 81% 0.00in /  0mm
09:52 35.4 °F /  1.9 °C 29.5 °F /  -1.4 °C 30.14in /  1020.5hPa ESE 7.0mph /  11.3km/h 8.0mph /  12.9km/h 79% 0.00in /  0mm
09:57 35.6 °F /  2 °C 30.0 °F /  -1.1 °C 30.13in /  1020.2hPa SE 6.0mph /  9.7km/h 8.0mph /  12.9km/h 80% 0.00in /  0mm
10:02 35.8 °F /  2.1 °C 30.2 °F /  -1 °C 30.13in /  1020.2hPa SSE 7.0mph /  11.3km/h 9.0mph /  14.5km/h 80% 0.00in /  0mm
10:07 35.9 °F /  2.2 °C 30.0 °F /  -1.1 °C 30.13in /  1020.2hPa SE 8.0mph /  12.9km/h 8.0mph /  12.9km/h 79% 0.00in /  0mm
10:12 36.2 °F /  2.3 °C 30.6 °F /  -0.8 °C 30.13in /  1020.2hPa SE 8.0mph /  12.9km/h 11.0mph /  17.7km/h 80% 0.00in /  0mm
10:17 36.4 °F /  2.4 °C 30.5 °F /  -0.8 °C 30.13in /  1020.2hPa SSE 5.0mph /  8km/h 7.0mph /  11.3km/h 79% 0.00in /  0mm
10:22 37.0 °F /  2.8 °C 31.1 °F /  -0.5 °C 30.13in /  1020.2hPa South 5.0mph /  8km/h 9.0mph /  14.5km/h 79% 0.00in /  0mm
10:27 37.3 °F /  2.9 °C 31.1 °F /  -0.5 °C 30.13in /  1020.2hPa SE 6.0mph /  9.7km/h 10.0mph /  16.1km/h 78% 0.00in /  0mm
10:32 37.4 °F /  3 °C 30.9 °F /  -0.6 °C 30.12in /  1019.9hPa SE 7.0mph /  11.3km/h 9.0mph /  14.5km/h 77% 0.00in /  0mm
10:37 37.6 °F /  3.1 °C 30.7 °F /  -0.7 °C 30.12in /  1019.9hPa SSE 6.0mph /  9.7km/h 10.0mph /  16.1km/h 76% 0.00in /  0mm
10:42 37.7 °F /  3.2 °C 30.8 °F /  -0.7 °C 30.11in /  1019.5hPa SSE 6.0mph /  9.7km/h 9.0mph /  14.5km/h 76% 0.00in /  0mm
10:47 38.0 °F /  3.3 °C 31.1 °F /  -0.5 °C 30.12in /  1019.9hPa SSE 6.0mph /  9.7km/h 8.0mph /  12.9km/h 76% 0.00in /  0mm
10:52 38.5 °F /  3.6 °C 31.0 °F /  -0.6 °C 30.12in /  1019.9hPa SE 5.0mph /  8km/h 8.0mph /  12.9km/h 74% 0.00in /  0mm
10:57 39.0 °F /  3.9 °C 31.4 °F /  -0.3 °C 30.12in /  1019.9hPa SSE 5.0mph /  8km/h 9.0mph /  14.5km/h 74% 0.00in /  0mm
11:02 39.6 °F /  4.2 °C 31.7 °F /  -0.2 °C 30.12in /  1019.9hPa South 4.0mph /  6.4km/h 7.0mph /  11.3km/h 73% 0.00in /  0mm
11:07 40.3 °F /  4.6 °C 31.7 °F /  -0.2 °C 30.12in /  1019.9hPa SE 7.0mph /  11.3km/h 9.0mph /  14.5km/h 71% 0.00in /  0mm
11:12 40.5 °F /  4.7 °C 31.5 °F /  -0.3 °C 30.12in /  1019.9hPa SSE 6.0mph /  9.7km/h 9.0mph /  14.5km/h 70% 0.00in /  0mm
11:17 40.9 °F /  4.9 °C 32.2 °F /  0.1 °C 30.12in /  1019.9hPa SSE 8.0mph /  12.9km/h 9.0mph /  14.5km/h 71% 0.00in /  0mm
11:22 41.4 °F /  5.2 °C 32.0 °F /  0 °C 30.11in /  1019.5hPa SSE 7.0mph /  11.3km/h 9.0mph /  14.5km/h 69% 0.00in /  0mm
11:27 41.8 °F /  5.4 °C 32.8 °F /  0.4 °C 30.11in /  1019.5hPa SSE 6.0mph /  9.7km/h 10.0mph /  16.1km/h 70% 0.00in /  0mm
11:32 42.0 °F /  5.6 °C 32.2 °F /  0.1 °C 30.11in /  1019.5hPa South 5.0mph /  8km/h 7.0mph /  11.3km/h 68% 0.00in /  0mm
11:37 42.7 °F /  5.9 °C 32.5 °F /  0.3 °C 30.10in /  1019.2hPa South 6.0mph /  9.7km/h 9.0mph /  14.5km/h 67% 0.00in /  0mm
11:42 43.2 °F /  6.2 °C 33.0 °F /  0.6 °C 30.10in /  1019.2hPa SSE 9.0mph /  14.5km/h 9.0mph /  14.5km/h 67% 0.00in /  0mm
11:47 43.4 °F /  6.3 °C 32.8 °F /  0.4 °C 30.11in /  1019.5hPa SSW 6.0mph /  9.7km/h 9.0mph /  14.5km/h 66% 0.00in /  0mm
11:52 43.7 °F /  6.5 °C 33.8 °F /  1 °C 30.10in /  1019.2hPa SSE 7.0mph /  11.3km/h 9.0mph /  14.5km/h 68% 0.00in /  0mm
11:57 43.9 °F /  6.6 °C 32.1 °F /  0.1 °C 30.10in /  1019.2hPa SSW 4.0mph /  6.4km/h 10.0mph /  16.1km/h 63% 0.00in /  0mm
12:02 44.3 °F /  6.8 °C 32.1 °F /  0.1 °C 30.10in /  1019.2hPa SW 4.0mph /  6.4km/h 11.0mph /  17.7km/h 62% 0.00in /  0mm
12:07 44.8 °F /  7.1 °C 32.6 °F /  0.3 °C 30.10in /  1019.2hPa South 6.0mph /  9.7km/h 7.0mph /  11.3km/h 62% 0.00in /  0mm
12:12 44.9 °F /  7.2 °C 32.3 °F /  0.2 °C 30.09in /  1018.8hPa SE 5.0mph /  8km/h 8.0mph /  12.9km/h 61% 0.00in /  0mm
12:17 45.5 °F /  7.5 °C 32.4 °F /  0.2 °C 30.09in /  1018.8hPa SSW 5.0mph /  8km/h 10.0mph /  16.1km/h 60% 0.00in /  0mm
12:22 46.0 °F /  7.8 °C 32.1 °F /  0.1 °C 30.09in /  1018.8hPa SSE 7.0mph /  11.3km/h 10.0mph /  16.1km/h 58% 0.00in /  0mm
12:28 46.8 °F /  8.2 °C 32.0 °F /  0 °C 30.09in /  1018.8hPa SSE 8.0mph /  12.9km/h 10.0mph /  16.1km/h 56% 0.00in /  0mm
12:33 47.3 °F /  8.5 °C 32.0 °F /  0 °C 30.09in /  1018.8hPa South 6.0mph /  9.7km/h 11.0mph /  17.7km/h 55% 0.00in /  0mm
12:38 47.4 °F /  8.6 °C 32.5 °F /  0.3 °C 30.08in /  1018.5hPa SW 8.0mph /  12.9km/h 9.0mph /  14.5km/h 56% 0.00in /  0mm
12:43 47.8 °F /  8.8 °C 33.3 °F /  0.7 °C 30.08in /  1018.5hPa SSW 6.0mph /  9.7km/h 10.0mph /  16.1km/h 57% 0.00in /  0mm
12:48 48.0 °F /  8.9 °C 32.2 °F /  0.1 °C 30.08in /  1018.5hPa South 6.0mph /  9.7km/h 10.0mph /  16.1km/h 54% 0.00in /  0mm
12:53 48.2 °F /  9 °C 33.3 °F /  0.7 °C 30.07in /  1018.2hPa South 4.0mph /  6.4km/h 9.0mph /  14.5km/h 56% 0.00in /  0mm
12:58 48.3 °F /  9.1 °C 32.9 °F /  0.5 °C 30.07in /  1018.2hPa SSW 7.0mph /  11.3km/h 10.0mph /  16.1km/h 55% 0.00in /  0mm
13:03 47.8 °F /  8.8 °C 33.3 °F /  0.7 °C 30.07in /  1018.2hPa SSE 8.0mph /  12.9km/h 10.0mph /  16.1km/h 57% 0.00in /  0mm
13:08 47.2 °F /  8.4 °C 32.8 °F /  0.4 °C 30.07in /  1018.2hPa SW 6.0mph /  9.7km/h 11.0mph /  17.7km/h 57% 0.00in /  0mm
13:13 47.0 °F /  8.3 °C 32.6 °F /  0.3 °C 30.06in /  1017.8hPa South 2.0mph /  3.2km/h 7.0mph /  11.3km/h 57% 0.00in /  0mm
13:18 47.2 °F /  8.4 °C 33.2 °F /  0.7 °C 30.06in /  1017.8hPa SSW 3.0mph /  4.8km/h 9.0mph /  14.5km/h 58% 0.00in /  0mm
13:23 47.5 °F /  8.6 °C 32.6 °F /  0.3 °C 30.05in /  1017.5hPa SSW 3.0mph /  4.8km/h 8.0mph /  12.9km/h 56% 0.00in /  0mm
13:28 48.1 °F /  8.9 °C 34.0 °F /  1.1 °C 30.05in /  1017.5hPa SW 8.0mph /  12.9km/h 9.0mph /  14.5km/h 58% 0.00in /  0mm
13:33 49.1 °F /  9.5 °C 35.0 °F /  1.7 °C 30.05in /  1017.5hPa SSE 9.0mph /  14.5km/h 9.0mph /  14.5km/h 58% 0.00in /  0mm
13:38 49.2 °F /  9.6 °C 35.1 °F /  1.7 °C 30.05in /  1017.5hPa SSW 5.0mph /  8km/h 9.0mph /  14.5km/h 58% 0.00in /  0mm
13:43 49.9 °F /  9.9 °C 34.8 °F /  1.6 °C 30.05in /  1017.5hPa SSW 9.0mph /  14.5km/h 11.0mph /  17.7km/h 56% 0.00in /  0mm
13:48 49.9 °F /  9.9 °C 33.5 °F /  0.8 °C 30.05in /  1017.5hPa SSE 9.0mph /  14.5km/h 10.0mph /  16.1km/h 53% 0.00in /  0mm
13:53 50.0 °F /  10 °C 34.0 °F /  1.1 °C 30.04in /  1017.2hPa South 7.0mph /  11.3km/h 11.0mph /  17.7km/h 54% 0.00in /  0mm
13:58 49.8 °F /  9.9 °C 32.9 °F /  0.5 °C 30.04in /  1017.2hPa SSW 5.0mph /  8km/h 9.0mph /  14.5km/h 52% 0.00in /  0mm
14:03 49.7 °F /  9.8 °C 33.3 °F /  0.7 °C 30.04in /  1017.2hPa SSW 9.0mph /  14.5km/h 11.0mph /  17.7km/h 53% 0.00in /  0mm
14:09 49.9 °F /  9.9 °C 33.5 °F /  0.8 °C 30.02in /  1016.5hPa South 8.0mph /  12.9km/h 13.0mph /  20.9km/h 53% 0.00in /  0mm
14:14 49.9 °F /  9.9 °C 33.5 °F /  0.8 °C 30.02in /  1016.5hPa South 5.0mph /  8km/h 10.0mph /  16.1km/h 53% 0.00in /  0mm
14:19 50.2 °F /  10.1 °C 34.2 °F /  1.2 °C 30.02in /  1016.5hPa SSE 6.0mph /  9.7km/h 11.0mph /  17.7km/h 54% 0.00in /  0mm
14:24 50.4 °F /  10.2 °C 33.9 °F /  1.1 °C 30.02in /  1016.5hPa South 4.0mph /  6.4km/h 8.0mph /  12.9km/h 53% 0.00in /  0mm
14:29 50.7 °F /  10.4 °C 35.1 °F /  1.7 °C 30.01in /  1016.1hPa SE 9.0mph /  14.5km/h 13.0mph /  20.9km/h 55% 0.00in /  0mm
14:34 50.7 °F /  10.4 °C 35.1 °F /  1.7 °C 30.01in /  1016.1hPa SSE 8.0mph /  12.9km/h 11.0mph /  17.7km/h 55% 0.00in /  0mm
14:39 50.9 °F /  10.5 °C 33.9 °F /  1.1 °C 30.00in /  1015.8hPa SSW 10.0mph /  16.1km/h 12.0mph /  19.3km/h 52% 0.00in /  0mm
14:44 50.9 °F /  10.5 °C 33.9 °F /  1.1 °C 30.00in /  1015.8hPa SSW 7.0mph /  11.3km/h 10.0mph /  16.1km/h 52% 0.00in /  0mm
14:49 51.2 °F /  10.7 °C 34.2 °F /  1.2 °C 30.00in /  1015.8hPa SSW 6.0mph /  9.7km/h 11.0mph /  17.7km/h 52% 0.00in /  0mm
14:54 51.6 °F /  10.9 °C 34.6 °F /  1.4 °C 29.99in /  1015.5hPa SE 6.0mph /  9.7km/h 9.0mph /  14.5km/h 52% 0.00in /  0mm
14:59 51.5 °F /  10.8 °C 34.5 °F /  1.4 °C 29.99in /  1015.5hPa SSW 6.0mph /  9.7km/h 11.0mph /  17.7km/h 52% 0.00in /  0mm
15:04 51.6 °F /  10.9 °C 35.0 °F /  1.7 °C 29.99in /  1015.5hPa SSW 5.0mph /  8km/h 9.0mph /  14.5km/h 53% 0.00in /  0mm
15:09 52.1 °F /  11.2 °C 35.0 °F /  1.7 °C 29.99in /  1015.5hPa SSW 10.0mph /  16.1km/h 10.0mph /  16.1km/h 52% 0.00in /  0mm
15:14 52.5 °F /  11.4 °C 35.4 °F /  1.9 °C 29.98in /  1015.1hPa SW 4.0mph /  6.4km/h 9.0mph /  14.5km/h 52% 0.00in /  0mm
15:19 52.9 °F /  11.6 °C 35.3 °F /  1.8 °C 29.98in /  1015.1hPa South 6.0mph /  9.7km/h 11.0mph /  17.7km/h 51% 0.00in /  0mm
15:24 53.0 °F /  11.7 °C 34.4 °F /  1.3 °C 29.98in /  1015.1hPa South 9.0mph /  14.5km/h 11.0mph /  17.7km/h 49% 0.00in /  0mm
15:29 53.1 °F /  11.7 °C 35.5 °F /  1.9 °C 29.99in /  1015.5hPa SSW 4.0mph /  6.4km/h 12.0mph /  19.3km/h 51% 0.00in /  0mm
15:34 53.4 °F /  11.9 °C 35.2 °F /  1.8 °C 29.99in /  1015.5hPa SW 7.0mph /  11.3km/h 10.0mph /  16.1km/h 50% 0.00in /  0mm
15:39 53.3 °F /  11.8 °C 34.7 °F /  1.5 °C 29.98in /  1015.1hPa SSE 4.0mph /  6.4km/h 9.0mph /  14.5km/h 49% 0.00in /  0mm
15:44 53.3 °F /  11.8 °C 36.1 °F /  2.3 °C 29.98in /  1015.1hPa SSE 13.0mph /  20.9km/h 13.0mph /  20.9km/h 52% 0.00in /  0mm
15:49 53.4 °F /  11.9 °C 35.7 °F /  2.1 °C 29.98in /  1015.1hPa South 9.0mph /  14.5km/h 10.0mph /  16.1km/h 51% 0.00in /  0mm
15:54 53.7 °F /  12.1 °C 36.0 °F /  2.2 °C 29.98in /  1015.1hPa SSE 4.0mph /  6.4km/h 6.0mph /  9.7km/h 51% 0.00in /  0mm
16:00 53.9 °F /  12.2 °C 35.2 °F /  1.8 °C 29.98in /  1015.1hPa SSW 5.0mph /  8km/h 7.0mph /  11.3km/h 49% 0.00in /  0mm
16:05 54.5 °F /  12.5 °C 36.3 °F /  2.4 °C 29.98in /  1015.1hPa South 5.0mph /  8km/h 12.0mph /  19.3km/h 50% 0.00in /  0mm
16:10 54.7 °F /  12.6 °C 35.9 °F /  2.2 °C 29.98in /  1015.1hPa SSE 3.0mph /  4.8km/h 12.0mph /  19.3km/h 49% 0.00in /  0mm
16:15 55.1 °F /  12.8 °C 36.8 °F /  2.7 °C 29.98in /  1015.1hPa SSW 6.0mph /  9.7km/h 6.0mph /  9.7km/h 50% 0.00in /  0mm
16:20 55.3 °F /  12.9 °C 36.0 °F /  2.2 °C 29.99in /  1015.5hPa SSW 6.0mph /  9.7km/h 8.0mph /  12.9km/h 48% 0.00in /  0mm
16:25 55.3 °F /  12.9 °C 36.5 °F /  2.5 °C 29.98in /  1015.1hPa South 10.0mph /  16.1km/h 12.0mph /  19.3km/h 49% 0.00in /  0mm
16:30 55.2 °F /  12.9 °C 35.9 °F /  2.2 °C 29.98in /  1015.1hPa South 6.0mph /  9.7km/h 9.0mph /  14.5km/h 48% 0.00in /  0mm
16:35 55.1 °F /  12.8 °C 35.8 °F /  2.1 °C 29.99in /  1015.5hPa SW 6.0mph /  9.7km/h 11.0mph /  17.7km/h 48% 0.00in /  0mm
16:40 55.2 °F /  12.9 °C 36.9 °F /  2.7 °C 29.99in /  1015.5hPa SSW 5.0mph /  8km/h 9.0mph /  14.5km/h 50% 0.00in /  0mm
16:45 55.3 °F /  12.9 °C 36.5 °F /  2.5 °C 29.98in /  1015.1hPa SW 6.0mph /  9.7km/h 10.0mph /  16.1km/h 49% 0.00in /  0mm
16:50 55.2 °F /  12.9 °C 36.4 °F /  2.4 °C 29.98in /  1015.1hPa South 6.0mph /  9.7km/h 11.0mph /  17.7km/h 49% 0.00in /  0mm
16:55 55.2 °F /  12.9 °C 36.4 °F /  2.4 °C 29.99in /  1015.5hPa WSW 6.0mph /  9.7km/h 8.0mph /  12.9km/h 49% 0.00in /  0mm
17:00 55.2 °F /  12.9 °C 36.4 °F /  2.4 °C 29.99in /  1015.5hPa SSW 6.0mph /  9.7km/h 8.0mph /  12.9km/h 49% 0.00in /  0mm
17:05 55.2 °F /  12.9 °C 35.9 °F /  2.2 °C 29.99in /  1015.5hPa SSW 8.0mph /  12.9km/h 10.0mph /  16.1km/h 48% 0.00in /  0mm
17:10 54.8 °F /  12.7 °C 35.5 °F /  1.9 °C 29.99in /  1015.5hPa South 7.0mph /  11.3km/h 9.0mph /  14.5km/h 48% 0.00in /  0mm
17:15 54.1 °F /  12.3 °C 35.9 °F /  2.2 °C 29.99in /  1015.5hPa SSE 3.0mph /  4.8km/h 9.0mph /  14.5km/h 50% 0.00in /  0mm
17:20 53.7 °F /  12.1 °C 36.0 °F /  2.2 °C 29.99in /  1015.5hPa South 4.0mph /  6.4km/h 10.0mph /  16.1km/h 51% 0.00in /  0mm
17:25 53.6 °F /  12 °C 35.9 °F /  2.2 °C 29.99in /  1015.5hPa SSW 8.0mph /  12.9km/h 8.0mph /  12.9km/h 51% 0.00in /  0mm
17:30 53.6 °F /  12 °C 36.4 °F /  2.4 °C 30.00in /  1015.8hPa South 2.0mph /  3.2km/h 5.0mph /  8km/h 52% 0.00in /  0mm
17:35 53.4 °F /  11.9 °C 36.2 °F /  2.3 °C 30.00in /  1015.8hPa South 3.0mph /  4.8km/h 4.0mph /  6.4km/h 52% 0.00in /  0mm
17:40 53.3 °F /  11.8 °C 36.1 °F /  2.3 °C 30.00in /  1015.8hPa South 2.0mph /  3.2km/h 4.0mph /  6.4km/h 52% 0.00in /  0mm
17:45 53.3 °F /  11.8 °C 35.7 °F /  2.1 °C 30.00in /  1015.8hPa SW 6.0mph /  9.7km/h 6.0mph /  9.7km/h 51% 0.00in /  0mm
17:50 53.3 °F /  11.8 °C 35.7 °F /  2.1 °C 30.01in /  1016.1hPa SSW 4.0mph /  6.4km/h 6.0mph /  9.7km/h 51% 0.00in /  0mm
17:55 53.3 °F /  11.8 °C 36.1 °F /  2.3 °C 30.01in /  1016.1hPa South 5.0mph /  8km/h 6.0mph /  9.7km/h 52% 0.00in /  0mm
18:00 53.2 °F /  11.8 °C 35.6 °F /  2 °C 30.00in /  1015.8hPa ESE 3.0mph /  4.8km/h 5.0mph /  8km/h 51% 0.00in /  0mm
18:05 53.1 °F /  11.7 °C 35.5 °F /  1.9 °C 30.00in /  1015.8hPa South 4.0mph /  6.4km/h 6.0mph /  9.7km/h 51% 0.00in /  0mm
18:10 53.1 °F /  11.7 °C 35.5 °F /  1.9 °C 30.00in /  1015.8hPa SSE 2.0mph /  3.2km/h 4.0mph /  6.4km/h 51% 0.00in /  0mm
18:15 52.9 °F /  11.6 °C 36.2 °F /  2.3 °C 30.00in /  1015.8hPa SSW 2.0mph /  3.2km/h 4.0mph /  6.4km/h 53% 0.00in /  0mm
18:20 52.5 °F /  11.4 °C 36.3 °F /  2.4 °C 29.99in /  1015.5hPa SSE 3.0mph /  4.8km/h 4.0mph /  6.4km/h 54% 0.00in /  0mm
18:25 52.1 °F /  11.2 °C 36.0 °F /  2.2 °C 29.99in /  1015.5hPa SSW 2.0mph /  3.2km/h 4.0mph /  6.4km/h 54% 0.00in /  0mm
18:30 52.0 °F /  11.1 °C 36.3 °F /  2.4 °C 29.99in /  1015.5hPa South 3.0mph /  4.8km/h 4.0mph /  6.4km/h 55% 0.00in /  0mm
18:35 51.7 °F /  10.9 °C 36.5 °F /  2.5 °C 29.99in /  1015.5hPa SSE 2.0mph /  3.2km/h 5.0mph /  8km/h 56% 0.00in /  0mm
18:38 51.4 °F /  10.8 °C 37.1 °F /  2.8 °C 30.00in /  1015.8hPa SSE 1.0mph /  1.6km/h 4.0mph /  6.4km/h 58% 0.00in /  0mm
18:43 51.2 °F /  10.7 °C 36.5 °F /  2.5 °C 30.00in /  1015.8hPa South 3.0mph /  4.8km/h 4.0mph /  6.4km/h 57% 0.00in /  0mm
18:48 51.3 °F /  10.7 °C 36.2 °F /  2.3 °C 29.99in /  1015.5hPa ESE 4.0mph /  6.4km/h 6.0mph /  9.7km/h 56% 0.00in /  0mm
18:53 51.6 °F /  10.9 °C 36.9 °F /  2.7 °C 29.99in /  1015.5hPa SSE 6.0mph /  9.7km/h 6.0mph /  9.7km/h 57% 0.00in /  0mm
18:58 51.6 °F /  10.9 °C 37.3 °F /  2.9 °C 29.99in /  1015.5hPa SSE 4.0mph /  6.4km/h 6.0mph /  9.7km/h 58% 0.00in /  0mm
19:03 51.4 °F /  10.8 °C 37.1 °F /  2.8 °C 29.98in /  1015.1hPa SSE 7.0mph /  11.3km/h 7.0mph /  11.3km/h 58% 0.00in /  0mm
19:08 51.3 °F /  10.7 °C 36.6 °F /  2.6 °C 29.98in /  1015.1hPa SSE 6.0mph /  9.7km/h 8.0mph /  12.9km/h 57% 0.00in /  0mm
19:13 51.4 °F /  10.8 °C 37.1 °F /  2.8 °C 29.99in /  1015.5hPa SE 4.0mph /  6.4km/h 6.0mph /  9.7km/h 58% 0.00in /  0mm
19:18 51.4 °F /  10.8 °C 36.7 °F /  2.6 °C 29.99in /  1015.5hPa SSE 3.0mph /  4.8km/h 6.0mph /  9.7km/h 57% 0.00in /  0mm
19:23 51.5 °F /  10.8 °C 37.2 °F /  2.9 °C 29.99in /  1015.5hPa SSW 4.0mph /  6.4km/h 6.0mph /  9.7km/h 58% 0.00in /  0mm
19:28 51.5 °F /  10.8 °C 37.2 °F /  2.9 °C 30.00in /  1015.8hPa SE 3.0mph /  4.8km/h 4.0mph /  6.4km/h 58% 0.00in /  0mm
19:34 51.5 °F /  10.8 °C 37.7 °F /  3.2 °C 30.00in /  1015.8hPa SSE 4.0mph /  6.4km/h 6.0mph /  9.7km/h 59% 0.00in /  0mm
19:39 51.4 °F /  10.8 °C 37.1 °F /  2.8 °C 30.00in /  1015.8hPa SSE 5.0mph /  8km/h 5.0mph /  8km/h 58% 0.00in /  0mm
19:44 51.5 °F /  10.8 °C 37.2 °F /  2.9 °C 30.00in /  1015.8hPa SSW 4.0mph /  6.4km/h 6.0mph /  9.7km/h 58% 0.00in /  0mm
19:49 51.7 °F /  10.9 °C 37.4 °F /  3 °C 30.00in /  1015.8hPa SSW 3.0mph /  4.8km/h 6.0mph /  9.7km/h 58% 0.00in /  0mm
19:54 51.7 °F /  10.9 °C 37.4 °F /  3 °C 30.01in /  1016.1hPa SSE 3.0mph /  4.8km/h 5.0mph /  8km/h 58% 0.00in /  0mm
19:59 51.8 °F /  11 °C 37.1 °F /  2.8 °C 30.01in /  1016.1hPa SSW 2.0mph /  3.2km/h 5.0mph /  8km/h 57% 0.00in /  0mm
20:04 51.8 °F /  11 °C 37.5 °F /  3.1 °C 30.01in /  1016.1hPa SSW 2.0mph /  3.2km/h 3.0mph /  4.8km/h 58% 0.00in /  0mm
20:09 51.7 °F /  10.9 °C 37.4 °F /  3 °C 30.01in /  1016.1hPa SSW 3.0mph /  4.8km/h 4.0mph /  6.4km/h 58% 0.00in /  0mm
20:14 51.7 °F /  10.9 °C 37.4 °F /  3 °C 30.01in /  1016.1hPa South 3.0mph /  4.8km/h 6.0mph /  9.7km/h 58% 0.00in /  0mm
20:19 51.6 °F /  10.9 °C 37.3 °F /  2.9 °C 30.01in /  1016.1hPa SSW 4.0mph /  6.4km/h 5.0mph /  8km/h 58% 0.00in /  0mm
20:24 51.6 °F /  10.9 °C 37.8 °F /  3.2 °C 30.01in /  1016.1hPa South 1.0mph /  1.6km/h 4.0mph /  6.4km/h 59% 0.00in /  0mm
20:29 51.4 °F /  10.8 °C 37.6 °F /  3.1 °C 30.01in /  1016.1hPa South 2.0mph /  3.2km/h 4.0mph /  6.4km/h 59% 0.00in /  0mm
20:34 51.4 °F /  10.8 °C 38.0 °F /  3.3 °C 30.01in /  1016.1hPa South 2.0mph /  3.2km/h 3.0mph /  4.8km/h 60% 0.00in /  0mm
20:39 51.2 °F /  10.7 °C 38.6 °F /  3.7 °C 30.00in /  1015.8hPa SE 1.0mph /  1.6km/h 2.0mph /  3.2km/h 62% 0.00in /  0mm
20:44 50.8 °F /  10.4 °C 38.3 °F /  3.5 °C 30.00in /  1015.8hPa SE 2.0mph /  3.2km/h 3.0mph /  4.8km/h 62% 0.00in /  0mm
20:49 50.9 °F /  10.5 °C 38.4 °F /  3.6 °C 30.00in /  1015.8hPa SE 4.0mph /  6.4km/h 4.0mph /  6.4km/h 62% 0.00in /  0mm
20:54 51.0 °F /  10.6 °C 37.6 °F /  3.1 °C 30.00in /  1015.8hPa SSW 3.0mph /  4.8km/h 5.0mph /  8km/h 60% 0.00in /  0mm
20:59 51.1 °F /  10.6 °C 37.7 °F /  3.2 °C 30.00in /  1015.8hPa SSE 3.0mph /  4.8km/h 4.0mph /  6.4km/h 60% 0.00in /  0mm
21:04 51.1 °F /  10.6 °C 38.1 °F /  3.4 °C 30.00in /  1015.8hPa South 2.0mph /  3.2km/h 4.0mph /  6.4km/h 61% 0.00in /  0mm
21:09 51.0 °F /  10.6 °C 38.5 °F /  3.6 °C 30.00in /  1015.8hPa SSE 1.0mph /  1.6km/h 2.0mph /  3.2km/h 62% 0.00in /  0mm
21:14 51.0 °F /  10.6 °C 38.0 °F /  3.3 °C 30.00in /  1015.8hPa Calm   2.0mph /  3.2km/h 61% 0.00in /  0mm
21:19 50.9 °F /  10.5 °C 38.4 °F /  3.6 °C 30.00in /  1015.8hPa Calm   2.0mph /  3.2km/h 62% 0.00in /  0mm
21:24 50.9 °F /  10.5 °C 38.0 °F /  3.3 °C 30.01in /  1016.1hPa Calm   1.0mph /  1.6km/h 61% 0.00in /  0mm
21:29 50.9 °F /  10.5 °C 38.4 °F /  3.6 °C 30.01in /  1016.1hPa SSE 1.0mph /  1.6km/h 1.0mph /  1.6km/h 62% 0.00in /  0mm
21:34 50.9 °F /  10.5 °C 38.0 °F /  3.3 °C 30.01in /  1016.1hPa Calm   1.0mph /  1.6km/h 61% 0.00in /  0mm
21:39 50.9 °F /  10.5 °C 37.5 °F /  3.1 °C 30.01in /  1016.1hPa SSE 1.0mph /  1.6km/h 1.0mph /  1.6km/h 60% 0.00in /  0mm
21:44 50.9 °F /  10.5 °C 38.0 °F /  3.3 °C 30.01in /  1016.1hPa SSE 1.0mph /  1.6km/h 1.0mph /  1.6km/h 61% 0.00in /  0mm
21:49 50.8 °F /  10.4 °C 38.3 °F /  3.5 °C 30.02in /  1016.5hPa Calm   1.0mph /  1.6km/h 62% 0.00in /  0mm
21:54 50.8 °F /  10.4 °C 38.3 °F /  3.5 °C 30.01in /  1016.1hPa Calm   1.0mph /  1.6km/h 62% 0.00in /  0mm
21:59 50.7 °F /  10.4 °C 37.8 °F /  3.2 °C 30.01in /  1016.1hPa Calm     61% 0.00in /  0mm
22:04 50.6 °F /  10.3 °C 38.1 °F /  3.4 °C 30.01in /  1016.1hPa Calm     62% 0.00in /  0mm
22:09 50.6 °F /  10.3 °C 37.7 °F /  3.2 °C 30.01in /  1016.1hPa Calm     61% 0.00in /  0mm
22:14 50.5 °F /  10.3 °C 37.6 °F /  3.1 °C 30.01in /  1016.1hPa Calm     61% 0.00in /  0mm
22:19 50.6 °F /  10.3 °C 37.7 °F /  3.2 °C 30.01in /  1016.1hPa East 2.0mph /  3.2km/h 2.0mph /  3.2km/h 61% 0.00in /  0mm
22:24 50.5 °F /  10.3 °C 38.4 °F /  3.6 °C 30.01in /  1016.1hPa East 2.0mph /  3.2km/h 2.0mph /  3.2km/h 63% 0.00in /  0mm
22:29 50.4 °F /  10.2 °C 38.3 °F /  3.5 °C 30.01in /  1016.1hPa East 1.0mph /  1.6km/h 1.0mph /  1.6km/h 63% 0.00in /  0mm
22:34 50.3 °F /  10.2 °C 39.4 °F /  4.1 °C 30.00in /  1015.8hPa NE 1.0mph /  1.6km/h 2.0mph /  3.2km/h 66% 0.00in /  0mm
22:40 49.9 °F /  9.9 °C 38.6 °F /  3.7 °C 30.00in /  1015.8hPa NE 1.0mph /  1.6km/h 2.0mph /  3.2km/h 65% 0.00in /  0mm
22:45 49.7 °F /  9.8 °C 38.8 °F /  3.8 °C 30.00in /  1015.8hPa NE 1.0mph /  1.6km/h 1.0mph /  1.6km/h 66% 0.00in /  0mm
22:50 49.8 °F /  9.9 °C 40.0 °F /  4.4 °C 30.00in /  1015.8hPa Calm     69% 0.00in /  0mm
22:55 49.5 °F /  9.7 °C 40.5 °F /  4.7 °C 30.00in /  1015.8hPa Calm   1.0mph /  1.6km/h 71% 0.00in /  0mm
23:00 49.5 °F /  9.7 °C 39.4 °F /  4.1 °C 30.00in /  1015.8hPa Calm   1.0mph /  1.6km/h 68% 0.00in /  0mm
23:05 49.5 °F /  9.7 °C 39.4 °F /  4.1 °C 30.00in /  1015.8hPa Calm     68% 0.00in /  0mm
23:10 49.5 °F /  9.7 °C 39.4 °F /  4.1 °C 30.00in /  1015.8hPa East 1.0mph /  1.6km/h 1.0mph /  1.6km/h 68% 0.00in /  0mm
23:15 49.6 °F /  9.8 °C 41.0 °F /  5 °C 30.00in /  1015.8hPa Calm   1.0mph /  1.6km/h 72% 0.00in /  0mm
23:20 49.2 °F /  9.6 °C 39.8 °F /  4.3 °C 30.00in /  1015.8hPa NE 1.0mph /  1.6km/h 2.0mph /  3.2km/h 70% 0.00in /  0mm
23:25 49.3 °F /  9.6 °C 39.2 °F /  4 °C 30.00in /  1015.8hPa NE 1.0mph /  1.6km/h 1.0mph /  1.6km/h 68% 0.00in /  0mm
23:30 49.5 °F /  9.7 °C 39.0 °F /  3.9 °C 30.00in /  1015.8hPa Calm   1.0mph /  1.6km/h 67% 0.00in /  0mm
23:35 49.8 °F /  9.9 °C 38.5 °F /  3.6 °C 30.00in /  1015.8hPa Calm   1.0mph /  1.6km/h 65% 0.00in /  0mm
23:40 50.0 °F /  10 °C 38.3 °F /  3.5 °C 30.00in /  1015.8hPa ENE 1.0mph /  1.6km/h 2.0mph /  3.2km/h 64% 0.00in /  0mm
23:45 50.0 °F /  10 °C 39.1 °F /  3.9 °C 30.00in /  1015.8hPa ESE 1.0mph /  1.6km/h 1.0mph /  1.6km/h 66% 0.00in /  0mm
23:46 50.0 °F /  10 °C 39.1 °F /  3.9 °C 30.00in /  1015.8hPa ESE 1.0mph /  1.6km/h 1.0mph /  1.6km/h 66% 0.00in /  0mm
23:51 49.8 °F /  9.9 °C 40.0 °F /  4.4 °C 30.00in /  1015.8hPa ESE 4.0mph /  6.4km/h 4.0mph /  6.4km/h 69% 0.00in /  0mm
23:56 49.8 °F /  9.9 °C 39.7 °F /  4.3 °C 30.00in /  1015.8hPa East 2.0mph /  3.2km/h 3.0mph /  4.8km/h 68% 0.00in /  0mm
Compliments of Weather Underground